createdAt,value
2023-02-24T00:01:03.099Z,8.81
2023-02-24T00:03:08.676Z,8.83
2023-02-24T00:05:11.370Z,8.84
2023-02-24T00:07:14.100Z,8.88
2023-02-24T00:09:20.083Z,8.83
2023-02-24T00:11:23.018Z,8.84
2023-02-24T00:13:25.754Z,8.82
2023-02-24T00:15:28.426Z,8.85
2023-02-24T00:17:32.411Z,8.90
2023-02-24T00:19:35.588Z,8.78
2023-02-24T00:21:38.293Z,8.80
2023-02-24T00:23:42.220Z,8.84
2023-02-24T00:25:44.874Z,8.81
2023-02-24T00:27:47.479Z,8.80
2023-02-24T00:29:50.207Z,8.83
2023-02-24T00:31:59.123Z,8.84
2023-02-24T00:34:03.544Z,8.87
2023-02-24T00:36:10.825Z,8.76
2023-02-24T00:38:13.593Z,8.87
2023-02-24T00:40:17.032Z,8.90
2023-02-24T00:42:19.781Z,8.95
2023-02-24T00:44:24.351Z,8.83
2023-02-24T00:46:31.721Z,8.81
2023-02-24T00:48:35.228Z,8.80
2023-02-24T00:50:40.015Z,8.88
2023-02-24T00:52:43.138Z,8.81
2023-02-24T00:54:46.882Z,8.87
2023-02-24T00:56:50.473Z,8.84
2023-02-24T00:58:54.342Z,8.70
2023-02-24T01:00:57.673Z,8.70
2023-02-24T01:03:00.680Z,8.69
2023-02-24T01:05:05.012Z,8.62
2023-02-24T01:07:11.006Z,8.69
2023-02-24T01:09:17.157Z,8.66
2023-02-24T01:11:38.839Z,8.77
2023-02-24T01:13:41.549Z,8.74
2023-02-24T01:15:44.253Z,8.78
2023-02-24T01:17:47.072Z,8.74
2023-02-24T01:19:50.474Z,8.68
2023-02-24T01:21:55.048Z,8.57
2023-02-24T01:23:59.025Z,8.64
2023-02-24T01:26:01.725Z,8.61
2023-02-24T01:28:04.549Z,8.58
2023-02-24T01:30:09.181Z,8.55
2023-02-24T01:32:16.913Z,8.47
2023-02-24T01:34:19.901Z,8.45
2023-02-24T01:36:25.635Z,8.41
2023-02-24T01:38:28.367Z,8.49
2023-02-24T01:40:32.642Z,8.56
2023-02-24T01:42:34.293Z,8.44
2023-02-24T01:45:15.971Z,8.38
2023-02-24T01:47:21.365Z,8.46
2023-02-24T01:49:30.323Z,8.46
2023-02-24T01:51:37.040Z,8.41
2023-02-24T01:53:39.528Z,8.46
2023-02-24T01:55:49.139Z,8.58
2023-02-24T01:57:54.251Z,8.52
2023-02-24T02:00:02.042Z,8.27
2023-02-24T02:02:08.764Z,8.38
2023-02-24T02:04:17.830Z,8.48
2023-02-24T02:06:20.547Z,8.30
2023-02-24T02:08:24.840Z,8.22
2023-02-24T02:10:28.977Z,8.32
2023-02-24T02:12:37.070Z,8.29
2023-02-24T02:14:47.502Z,8.27
2023-02-24T02:17:04.146Z,8.27
2023-02-24T02:19:35.009Z,8.18
2023-02-24T02:22:02.399Z,8.07
2023-02-24T02:24:31.424Z,8.06
2023-02-24T02:27:07.855Z,7.99
2023-02-24T02:29:22.936Z,8.01
2023-02-24T02:31:46.508Z,8.12
2023-02-24T02:34:08.948Z,8.30
2023-02-24T02:36:19.458Z,8.19
2023-02-24T02:38:30.817Z,8.09
2023-02-24T02:40:41.997Z,8.07
2023-02-24T02:42:51.972Z,8.08
2023-02-24T02:45:05.336Z,8.14
2023-02-24T02:47:14.080Z,8.09
2023-02-24T02:49:23.117Z,8.08
2023-02-24T02:51:31.006Z,8.01
2023-02-24T02:53:39.331Z,8.01
2023-02-24T02:55:47.623Z,7.93
2023-02-24T02:57:55.301Z,7.95
2023-02-24T03:00:01.950Z,7.96
2023-02-24T03:02:14.762Z,7.89
2023-02-24T03:04:22.859Z,7.89
2023-02-24T03:06:28.866Z,7.97
2023-02-24T03:08:37.167Z,7.96
2023-02-24T03:10:44.716Z,7.92
2023-02-24T03:12:51.700Z,8.00
2023-02-24T03:15:00.117Z,8.08
2023-02-24T03:17:06.545Z,7.98
2023-02-24T03:19:13.542Z,7.86
2023-02-24T03:21:23.061Z,7.81
2023-02-24T03:23:31.900Z,7.84
2023-02-24T03:25:44.524Z,7.85
2023-02-24T03:27:51.564Z,7.89
2023-02-24T03:29:59.460Z,7.95
2023-02-24T03:32:06.490Z,7.85
2023-02-24T03:34:15.276Z,7.89
2023-02-24T03:36:19.255Z,7.94
2023-02-24T03:38:24.453Z,7.93
2023-02-24T03:40:36.011Z,7.98
2023-02-24T03:42:42.199Z,8.01
2023-02-24T03:44:45.774Z,7.99
2023-02-24T03:46:48.605Z,7.98
2023-02-24T03:48:58.199Z,7.94
2023-02-24T03:51:01.055Z,7.92
2023-02-24T03:53:17.221Z,8.03
2023-02-24T03:55:33.215Z,7.97
2023-02-24T03:57:55.669Z,8.04
2023-02-24T04:00:25.719Z,8.01
2023-02-24T04:02:32.061Z,7.91
2023-02-24T04:04:41.659Z,7.83
2023-02-24T04:06:49.892Z,7.74
2023-02-24T04:09:01.998Z,7.89
2023-02-24T04:11:13.208Z,7.88
2023-02-24T04:13:21.189Z,8.03
2023-02-24T04:15:29.541Z,8.10
2023-02-24T04:17:39.317Z,7.99
2023-02-24T04:19:45.671Z,8.04
2023-02-24T04:21:49.412Z,8.15
2023-02-24T04:23:53.114Z,8.16
2023-02-24T04:25:57.211Z,8.21
2023-02-24T04:28:03.076Z,8.05
2023-02-24T04:30:10.673Z,8.10
2023-02-24T04:32:15.291Z,8.13
2023-02-24T04:34:20.139Z,8.18
2023-02-24T04:36:23.058Z,8.17
2023-02-24T04:38:26.115Z,8.17
2023-02-24T04:40:28.893Z,8.20
2023-02-24T04:42:32.823Z,8.06
2023-02-24T04:44:36.045Z,7.95
2023-02-24T04:46:38.737Z,8.09
2023-02-24T04:48:41.410Z,7.92
2023-02-24T04:50:45.054Z,8.22
2023-02-24T04:52:50.126Z,8.01
2023-02-24T04:54:52.771Z,7.98
2023-02-24T04:56:56.945Z,7.88
2023-02-24T04:59:02.706Z,7.74
2023-02-24T05:01:11.082Z,7.91
2023-02-24T05:03:13.744Z,7.92
2023-02-24T05:05:17.486Z,7.90
2023-02-24T05:07:20.204Z,8.03
2023-02-24T05:09:22.848Z,7.95
2023-02-24T05:11:25.485Z,7.85
2023-02-24T05:13:31.561Z,7.68
2023-02-24T05:15:39.256Z,7.54
2023-02-24T05:17:42.097Z,7.70
2023-02-24T05:20:02.227Z,7.66
2023-02-24T05:22:07.036Z,7.68
2023-02-24T05:24:11.539Z,7.70
2023-02-24T05:26:16.830Z,7.61
2023-02-24T05:28:22.140Z,7.77
2023-02-24T05:30:25.228Z,7.81
2023-02-24T05:32:29.418Z,7.78
2023-02-24T05:34:34.465Z,7.84
2023-02-24T05:36:40.246Z,7.71
2023-02-24T05:38:43.983Z,7.66
2023-02-24T05:40:48.510Z,7.62
2023-02-24T05:42:51.811Z,7.70
2023-02-24T05:44:54.651Z,7.77
2023-02-24T05:46:59.491Z,7.72
2023-02-24T05:49:08.623Z,7.69
2023-02-24T05:51:12.638Z,7.69
2023-02-24T05:53:15.446Z,7.57
2023-02-24T05:55:18.164Z,7.43
2023-02-24T05:57:21.323Z,7.47
2023-02-24T05:59:24.054Z,7.49
2023-02-24T06:01:30.123Z,7.59
2023-02-24T06:03:35.560Z,7.69
2023-02-24T06:05:39.776Z,7.76
2023-02-24T06:07:43.069Z,7.80
2023-02-24T06:09:45.916Z,7.84
2023-02-24T06:11:48.573Z,7.87
2023-02-24T06:13:52.225Z,7.68
2023-02-24T06:15:57.108Z,7.73
2023-02-24T06:18:00.868Z,7.84
2023-02-24T06:20:13.094Z,7.83
2023-02-24T06:22:19.550Z,7.88
2023-02-24T06:24:22.230Z,7.81
2023-02-24T06:26:25.060Z,7.89
2023-02-24T06:28:28.330Z,7.79
2023-02-24T06:30:32.781Z,7.92
2023-02-24T06:32:36.245Z,7.84
2023-02-24T06:34:40.213Z,7.66
2023-02-24T06:36:43.583Z,7.71
2023-02-24T06:38:49.379Z,7.74
2023-02-24T06:40:52.531Z,7.81
2023-02-24T06:42:55.233Z,7.91
2023-02-24T06:44:57.940Z,7.91
2023-02-24T06:47:01.158Z,7.92
2023-02-24T06:49:03.986Z,7.94
2023-02-24T06:51:07.872Z,7.85
2023-02-24T06:53:16.924Z,7.81
2023-02-24T06:55:26.944Z,7.87
2023-02-24T06:57:32.763Z,7.84
2023-02-24T06:59:35.421Z,7.93
2023-02-24T07:01:45.007Z,7.84
2023-02-24T07:04:03.303Z,7.85
2023-02-24T07:06:20.478Z,7.65
2023-02-24T07:08:27.151Z,7.66
2023-02-24T07:10:31.134Z,7.62
2023-02-24T07:12:34.149Z,7.58
2023-02-24T07:14:36.977Z,7.66
2023-02-24T07:16:41.929Z,7.71
2023-02-24T07:18:48.684Z,7.66
2023-02-24T07:20:51.789Z,7.78
2023-02-24T07:22:54.500Z,7.80
2023-02-24T07:25:00.609Z,7.81
2023-02-24T07:27:06.942Z,7.84
2023-02-24T07:29:11.523Z,7.87
2023-02-24T07:31:17.426Z,7.84
2023-02-24T07:33:20.373Z,7.92
2023-02-24T07:35:23.884Z,7.85
2023-02-24T07:37:31.520Z,7.80
2023-02-24T07:39:34.750Z,7.95
2023-02-24T07:41:37.806Z,7.85
2023-02-24T07:43:43.984Z,7.85
2023-02-24T07:45:47.304Z,7.65
2023-02-24T07:47:50.303Z,7.51
2023-02-24T07:49:52.889Z,7.75
2023-02-24T07:51:57.845Z,7.87
2023-02-24T07:54:02.723Z,7.97
2023-02-24T07:56:10.748Z,7.97
2023-02-24T07:58:13.336Z,7.86
2023-02-24T08:00:19.401Z,7.85
2023-02-24T08:02:23.793Z,7.80
2023-02-24T08:04:28.659Z,7.79
2023-02-24T08:06:37.870Z,7.94
2023-02-24T08:08:57.793Z,7.98
2023-02-24T08:11:04.149Z,8.06
2023-02-24T08:13:07.043Z,8.11
2023-02-24T08:15:17.395Z,8.13
2023-02-24T08:17:26.144Z,8.15
2023-02-24T08:19:33.314Z,8.15
2023-02-24T08:21:41.176Z,8.25
2023-02-24T08:23:45.695Z,8.17
2023-02-24T08:25:48.454Z,8.22
2023-02-24T08:28:12.269Z,7.98
2023-02-24T08:30:23.306Z,7.91
2023-02-24T08:32:33.631Z,8.22
2023-02-24T08:34:36.589Z,8.29
2023-02-24T08:36:39.246Z,8.13
2023-02-24T08:38:42.296Z,8.16
2023-02-24T08:40:51.428Z,7.95
2023-02-24T08:42:54.126Z,8.12
2023-02-24T08:44:58.131Z,8.15
2023-02-24T08:47:05.202Z,8.14
2023-02-24T08:49:10.901Z,8.19
2023-02-24T08:51:17.825Z,8.22
2023-02-24T08:53:20.968Z,8.32
2023-02-24T08:55:30.159Z,8.35
2023-02-24T08:57:35.954Z,8.62
2023-02-24T08:59:38.911Z,8.56
2023-02-24T09:02:04.273Z,8.61
2023-02-24T09:04:10.667Z,9.04
2023-02-24T09:06:16.786Z,9.23
2023-02-24T09:08:24.079Z,10.38
2023-02-24T09:10:28.574Z,10.77
2023-02-24T09:12:31.917Z,10.62
2023-02-24T09:14:37.839Z,10.56
2023-02-24T09:16:52.403Z,11.11
2023-02-24T09:19:08.938Z,11.54
2023-02-24T09:21:31.870Z,11.87
2023-02-24T09:23:45.812Z,11.16
2023-02-24T09:25:50.449Z,11.11
2023-02-24T09:27:56.912Z,9.84
2023-02-24T09:30:07.981Z,9.84
2023-02-24T09:32:14.770Z,9.96
2023-02-24T09:34:19.916Z,10.21
2023-02-24T09:36:30.102Z,10.13
2023-02-24T09:39:02.354Z,9.87
2023-02-24T09:41:29.865Z,9.45
2023-02-24T09:43:44.106Z,9.43
2023-02-24T09:46:01.887Z,9.76
2023-02-24T09:48:10.434Z,9.71
2023-02-24T09:50:46.860Z,9.96
2023-02-24T09:52:47.482Z,9.95
2023-02-24T09:55:14.519Z,9.95
2023-02-24T09:57:25.300Z,9.76
2023-02-24T09:59:34.748Z,9.93
2023-02-24T10:01:44.451Z,9.93
2023-02-24T10:03:51.911Z,9.73
2023-02-24T10:06:00.634Z,9.89
2023-02-24T10:08:08.194Z,9.83
2023-02-24T10:10:20.446Z,9.92
2023-02-24T10:12:28.802Z,10.10
2023-02-24T10:14:43.798Z,9.90
2023-02-24T10:17:08.172Z,9.91
2023-02-24T10:19:25.290Z,10.10
2023-02-24T10:21:48.388Z,9.72
2023-02-24T10:24:06.840Z,9.77
2023-02-24T10:26:30.380Z,10.20
2023-02-24T10:28:40.589Z,10.43
2023-02-24T10:31:01.586Z,10.85
2023-02-24T10:33:06.980Z,10.85
2023-02-24T10:35:14.497Z,10.66
2023-02-24T10:37:28.150Z,10.96
2023-02-24T10:39:33.464Z,10.67
2023-02-24T10:41:45.747Z,10.86
2023-02-24T10:43:56.148Z,10.49
2023-02-24T10:46:07.076Z,10.44
2023-02-24T10:48:11.816Z,10.16
2023-02-24T10:50:23.608Z,10.14
2023-02-24T10:52:50.816Z,9.89
2023-02-24T10:55:05.305Z,9.36
2023-02-24T10:57:18.525Z,9.18
2023-02-24T10:59:38.758Z,9.23
2023-02-24T11:01:54.940Z,9.00
2023-02-24T11:04:22.834Z,8.97
2023-02-24T11:06:52.600Z,9.06
2023-02-24T11:09:19.033Z,8.96
2023-02-24T11:11:29.778Z,9.22
2023-02-24T11:13:50.383Z,9.38
2023-02-24T11:16:13.603Z,9.46
2023-02-24T11:18:20.494Z,9.16
2023-02-24T11:20:46.075Z,9.62
2023-02-24T11:22:55.787Z,9.45
2023-02-24T11:25:01.794Z,9.81
2023-02-24T11:27:06.516Z,9.55
2023-02-24T11:29:27.743Z,9.34
2023-02-24T11:31:46.592Z,9.40
2023-02-24T11:34:00.800Z,9.53
2023-02-24T11:36:12.682Z,9.56
2023-02-24T11:38:28.674Z,9.66
2023-02-24T11:40:38.322Z,9.35
2023-02-24T11:42:46.826Z,9.43
2023-02-24T11:44:54.468Z,9.67
2023-02-24T11:47:01.533Z,9.40
2023-02-24T11:49:15.626Z,9.09
2023-02-24T11:51:23.492Z,9.24
2023-02-24T11:53:31.437Z,9.09
2023-02-24T11:55:42.388Z,9.45
2023-02-24T11:57:51.791Z,9.30
2023-02-24T12:00:04.310Z,9.59
2023-02-24T12:02:17.717Z,9.70
2023-02-24T12:04:26.437Z,9.57
2023-02-24T12:06:35.261Z,9.54
2023-02-24T12:08:42.453Z,9.63
2023-02-24T12:10:50.980Z,9.99
2023-02-24T12:13:04.115Z,9.98
2023-02-24T12:15:14.586Z,9.83
2023-02-24T12:17:23.793Z,10.58
2023-02-24T12:19:34.528Z,10.69
2023-02-24T12:21:41.824Z,10.84
2023-02-24T12:23:46.589Z,10.57
2023-02-24T12:26:01.977Z,11.05
2023-02-24T12:28:19.335Z,11.27
2023-02-24T12:30:48.784Z,11.15
2023-02-24T12:33:01.649Z,11.22
2023-02-24T12:35:13.990Z,11.39
2023-02-24T12:37:30.851Z,11.25
2023-02-24T12:39:44.183Z,10.85
2023-02-24T12:41:58.967Z,11.01
2023-02-24T12:44:16.147Z,11.06
2023-02-24T12:46:24.890Z,10.43
2023-02-24T12:48:44.696Z,10.79
2023-02-24T12:50:55.075Z,11.04
2023-02-24T12:53:06.353Z,10.54
2023-02-24T12:55:17.319Z,10.84
2023-02-24T12:57:28.244Z,11.23
2023-02-24T12:59:38.841Z,11.09
2023-02-24T13:01:49.307Z,10.59
2023-02-24T13:04:22.909Z,10.53
2023-02-24T13:06:37.780Z,10.75
2023-02-24T13:08:48.359Z,10.40
2023-02-24T13:11:00.472Z,10.34
2023-02-24T13:13:11.811Z,10.17
2023-02-24T13:15:22.154Z,10.07
2023-02-24T13:17:27.072Z,10.42
2023-02-24T13:19:30.910Z,10.51
2023-02-24T13:21:34.836Z,10.59
2023-02-24T13:23:41.569Z,10.68
2023-02-24T13:25:52.030Z,10.60
2023-02-24T13:28:01.217Z,10.65
2023-02-24T13:30:08.517Z,10.26
2023-02-24T13:32:28.434Z,10.35
2023-02-24T13:34:33.988Z,10.47
2023-02-24T13:36:47.482Z,10.29
2023-02-24T13:38:52.254Z,10.03
2023-02-24T13:40:55.304Z,10.12
2023-02-24T13:43:00.056Z,10.22
2023-02-24T13:45:18.259Z,10.15
2023-02-24T13:48:08.773Z,9.95
2023-02-24T13:50:25.370Z,10.09
2023-02-24T13:52:42.833Z,10.18
2023-02-24T13:55:04.135Z,10.09
2023-02-24T13:57:45.553Z,10.05
2023-02-24T14:00:10.259Z,10.25
2023-02-24T14:02:16.303Z,10.27
2023-02-24T14:04:24.326Z,10.23
2023-02-24T14:06:28.944Z,10.27
2023-02-24T14:08:42.343Z,10.33
2023-02-24T14:10:47.142Z,10.12
2023-02-24T14:12:51.558Z,10.11
2023-02-24T14:14:55.411Z,10.18
2023-02-24T14:16:58.275Z,10.07
2023-02-24T14:19:02.795Z,10.19
2023-02-24T14:21:05.752Z,10.10
2023-02-24T14:23:24.168Z,10.12
2023-02-24T14:25:29.909Z,10.19
2023-02-24T14:27:33.072Z,10.08
2023-02-24T14:29:44.187Z,10.20
2023-02-24T14:31:51.942Z,10.08
2023-02-24T14:33:58.961Z,10.00
2023-02-24T14:36:02.522Z,10.00
2023-02-24T14:38:06.008Z,9.67
2023-02-24T14:40:17.173Z,9.51
2023-02-24T14:42:21.869Z,9.40
2023-02-24T14:44:26.935Z,9.43
2023-02-24T14:46:29.601Z,9.46
2023-02-24T14:48:32.909Z,9.57
2023-02-24T14:50:36.456Z,9.76
2023-02-24T14:52:43.328Z,9.58
2023-02-24T14:54:49.622Z,9.60
2023-02-24T14:56:53.912Z,9.59
2023-02-24T14:59:01.658Z,9.57
2023-02-24T15:01:07.940Z,9.61
2023-02-24T15:03:14.920Z,9.70
2023-02-24T15:05:17.871Z,9.56
2023-02-24T15:07:24.570Z,9.65
2023-02-24T15:09:28.856Z,9.84
2023-02-24T15:11:33.754Z,9.80
2023-02-24T15:13:40.506Z,9.63
2023-02-24T15:15:43.497Z,9.73
2023-02-24T15:17:46.939Z,9.83
2023-02-24T15:19:54.513Z,9.61
2023-02-24T15:21:57.180Z,9.65
2023-02-24T15:24:01.554Z,9.88
2023-02-24T15:26:06.063Z,9.66
2023-02-24T15:28:24.384Z,9.74
2023-02-24T15:30:34.872Z,9.57
2023-02-24T15:32:39.141Z,9.53
2023-02-24T15:34:46.421Z,9.58
2023-02-24T15:36:51.230Z,9.73
2023-02-24T15:38:56.705Z,9.71
2023-02-24T15:41:02.218Z,9.63
2023-02-24T15:43:11.719Z,9.57
2023-02-24T15:45:28.392Z,9.36
2023-02-24T15:47:42.687Z,9.53
2023-02-24T15:49:45.385Z,9.61
2023-02-24T15:51:50.285Z,9.60
2023-02-24T15:53:52.922Z,9.63
2023-02-24T15:55:55.632Z,9.56
2023-02-24T15:58:01.696Z,9.45
2023-02-24T16:00:09.404Z,9.56
2023-02-24T16:02:15.792Z,9.45
2023-02-24T16:04:20.997Z,9.52
2023-02-24T16:06:25.942Z,9.55
2023-02-24T16:08:28.993Z,9.29
2023-02-24T16:10:32.263Z,9.01
2023-02-24T16:12:36.959Z,8.94
2023-02-24T16:14:41.025Z,9.10
2023-02-24T16:16:44.028Z,9.02
2023-02-24T16:18:46.709Z,9.01
2023-02-24T16:20:54.178Z,8.90
2023-02-24T16:22:58.787Z,8.76
2023-02-24T16:25:01.554Z,8.58
2023-02-24T16:27:04.250Z,8.52
2023-02-24T16:29:11.471Z,8.40
2023-02-24T16:31:14.404Z,8.41
2023-02-24T16:33:19.098Z,8.43
2023-02-24T16:35:22.085Z,8.42
2023-02-24T16:37:29.303Z,8.41
2023-02-24T16:39:32.051Z,8.48
2023-02-24T16:41:34.672Z,8.40
2023-02-24T16:43:37.646Z,8.31
2023-02-24T16:45:41.562Z,8.22
2023-02-24T16:47:45.285Z,8.11
2023-02-24T16:49:48.139Z,8.03
2023-02-24T16:51:50.725Z,8.13
2023-02-24T16:53:54.743Z,7.96
2023-02-24T16:55:57.947Z,8.11
2023-02-24T16:58:00.661Z,7.94
2023-02-24T17:00:05.252Z,8.05
2023-02-24T17:02:11.619Z,8.15
2023-02-24T17:04:14.319Z,7.97
2023-02-24T17:06:17.611Z,7.80
2023-02-24T17:08:21.330Z,7.94
2023-02-24T17:10:26.442Z,7.90
2023-02-24T17:12:29.260Z,7.87
2023-02-24T17:14:32.118Z,7.77
2023-02-24T17:16:34.826Z,7.72
2023-02-24T17:18:37.813Z,7.82
2023-02-24T17:20:42.218Z,7.98
2023-02-24T17:22:45.834Z,7.92
2023-02-24T17:24:48.486Z,7.75
2023-02-24T17:26:52.584Z,7.81
2023-02-24T17:28:55.568Z,7.72
2023-02-24T17:30:58.577Z,7.81
2023-02-24T17:33:01.545Z,7.71
2023-02-24T17:35:04.311Z,7.70
2023-02-24T17:37:06.951Z,7.69
2023-02-24T17:39:09.575Z,7.65
2023-02-24T17:41:12.318Z,7.71
2023-02-24T17:43:16.661Z,7.64
2023-02-24T17:45:19.563Z,7.62
2023-02-24T17:47:22.394Z,7.64
2023-02-24T17:49:25.167Z,7.60
2023-02-24T17:51:28.086Z,7.60
2023-02-24T17:53:31.288Z,7.58
2023-02-24T17:55:34.040Z,7.62
2023-02-24T17:57:37.219Z,7.59
2023-02-24T17:59:43.368Z,7.63
2023-02-24T18:01:46.139Z,7.58
2023-02-24T18:03:48.856Z,7.52
2023-02-24T18:05:58.960Z,7.56
2023-02-24T18:08:01.623Z,7.51
2023-02-24T18:10:05.048Z,7.48
2023-02-24T18:12:08.270Z,7.44
2023-02-24T18:14:10.911Z,7.50
2023-02-24T18:16:16.585Z,7.49
2023-02-24T18:18:19.322Z,7.50
2023-02-24T18:20:22.165Z,7.58
2023-02-24T18:22:25.125Z,7.37
2023-02-24T18:24:27.891Z,7.38
2023-02-24T18:26:30.627Z,7.40
2023-02-24T18:28:33.434Z,7.44
2023-02-24T18:30:36.322Z,7.38
2023-02-24T18:32:44.416Z,7.50
2023-02-24T18:34:47.524Z,7.42
2023-02-24T18:36:50.274Z,7.54
2023-02-24T18:38:53.594Z,7.54
2023-02-24T18:41:00.398Z,7.55
2023-02-24T18:43:03.000Z,7.51
2023-02-24T18:45:06.508Z,7.52
2023-02-24T18:47:10.224Z,7.46
2023-02-24T18:49:14.294Z,7.50
2023-02-24T18:51:19.652Z,7.49
2023-02-24T18:53:23.682Z,7.49
2023-02-24T18:55:26.334Z,7.41
2023-02-24T18:57:29.281Z,7.56
2023-02-24T18:59:31.970Z,7.54
2023-02-24T19:01:36.526Z,7.52
2023-02-24T19:03:39.247Z,7.45
2023-02-24T19:05:43.320Z,7.40
2023-02-24T19:07:45.989Z,7.39
2023-02-24T19:09:48.932Z,7.37
2023-02-24T19:11:52.415Z,7.36
2023-02-24T19:13:55.214Z,7.33
2023-02-24T19:16:00.756Z,7.47
2023-02-24T19:18:03.667Z,7.23
2023-02-24T19:20:08.402Z,7.29
2023-02-24T19:22:12.380Z,7.23
2023-02-24T19:24:15.280Z,7.41
2023-02-24T19:26:19.898Z,7.37
2023-02-24T19:28:22.851Z,7.36
2023-02-24T19:30:25.600Z,7.38
2023-02-24T19:32:28.425Z,7.37
2023-02-24T19:34:31.204Z,7.28
2023-02-24T19:36:36.057Z,7.03
2023-02-24T19:38:42.004Z,7.13
2023-02-24T19:40:45.661Z,7.10
2023-02-24T19:42:51.085Z,7.04
2023-02-24T19:44:54.016Z,7.02
2023-02-24T19:46:57.092Z,7.16
2023-02-24T19:48:59.896Z,7.23
2023-02-24T19:51:08.135Z,7.16
2023-02-24T19:53:10.793Z,7.01
2023-02-24T19:55:14.959Z,7.05
2023-02-24T19:57:17.803Z,7.09
2023-02-24T19:59:20.507Z,7.07
2023-02-24T20:01:24.229Z,7.02
2023-02-24T20:03:28.322Z,7.10
2023-02-24T20:05:31.050Z,7.03
2023-02-24T20:07:34.634Z,7.14
2023-02-24T20:09:37.338Z,7.06
2023-02-24T20:11:42.298Z,7.15
2023-02-24T20:13:45.295Z,7.18
2023-02-24T20:15:47.924Z,6.93
2023-02-24T20:17:50.673Z,6.90
2023-02-24T20:19:53.450Z,6.97
2023-02-24T20:21:56.049Z,7.00
2023-02-24T20:24:00.715Z,7.05
2023-02-24T20:26:03.407Z,6.94
2023-02-24T20:28:07.366Z,6.85
2023-02-24T20:30:11.724Z,7.05
2023-02-24T20:32:14.558Z,6.99
2023-02-24T20:34:17.720Z,7.06
2023-02-24T20:36:23.983Z,6.93
2023-02-24T20:38:26.906Z,6.98
2023-02-24T20:40:29.570Z,7.06
2023-02-24T20:42:32.210Z,6.83
2023-02-24T20:44:36.265Z,6.80
2023-02-24T20:46:39.009Z,6.97
2023-02-24T20:48:42.067Z,6.90
2023-02-24T20:50:44.797Z,6.87
2023-02-24T20:52:47.584Z,6.93
2023-02-24T20:54:50.344Z,6.92
2023-02-24T20:56:53.494Z,6.94
2023-02-24T20:59:00.854Z,6.81
2023-02-24T21:01:05.363Z,6.78
2023-02-24T21:03:11.902Z,6.84
2023-02-24T21:05:19.695Z,6.76
2023-02-24T21:07:22.323Z,6.71
2023-02-24T21:09:25.076Z,6.79
2023-02-24T21:11:29.757Z,6.77
2023-02-24T21:13:32.588Z,6.67
2023-02-24T21:15:35.250Z,6.80
2023-02-24T21:17:39.339Z,6.86
2023-02-24T21:19:43.194Z,6.66
2023-02-24T21:21:45.804Z,6.69
2023-02-24T21:23:48.942Z,6.68
2023-02-24T21:25:52.437Z,6.69
2023-02-24T21:27:55.675Z,6.63
2023-02-24T21:29:58.310Z,6.37
2023-02-24T21:32:01.172Z,6.07
2023-02-24T21:34:05.333Z,5.78
2023-02-24T21:36:10.205Z,5.22
2023-02-24T21:38:12.963Z,4.99
2023-02-24T21:40:17.614Z,4.96
2023-02-24T21:42:22.161Z,5.09
2023-02-24T21:44:24.875Z,4.86
2023-02-24T21:46:28.436Z,4.76
2023-02-24T21:48:31.559Z,4.64
2023-02-24T21:50:35.556Z,4.78
2023-02-24T21:52:38.435Z,4.72
2023-02-24T21:54:42.318Z,4.39
2023-02-24T21:56:44.997Z,4.42
2023-02-24T21:58:49.449Z,4.25
2023-02-24T22:00:52.017Z,4.35
2023-02-24T22:02:56.409Z,4.13
2023-02-24T22:04:59.057Z,4.21
2023-02-24T22:07:03.024Z,4.16
2023-02-24T22:09:07.635Z,4.32
2023-02-24T22:11:11.675Z,4.21
2023-02-24T22:13:14.256Z,4.08
2023-02-24T22:15:16.935Z,4.17
2023-02-24T22:17:19.594Z,4.09
2023-02-24T22:19:22.193Z,4.07
2023-02-24T22:21:26.880Z,3.76
2023-02-24T22:23:31.116Z,3.78
2023-02-24T22:25:35.753Z,3.66
2023-02-24T22:27:38.799Z,3.70
2023-02-24T22:29:42.685Z,3.97
2023-02-24T22:31:49.445Z,4.06
2023-02-24T22:33:52.828Z,4.01
2023-02-24T22:35:55.547Z,3.79
2023-02-24T22:37:58.377Z,3.97
2023-02-24T22:40:02.592Z,3.96
2023-02-24T22:42:05.299Z,4.01
2023-02-24T22:44:08.525Z,4.09
2023-02-24T22:46:14.012Z,4.01
2023-02-24T22:48:16.855Z,3.71
2023-02-24T22:50:19.826Z,3.69
2023-02-24T22:52:22.500Z,3.84
2023-02-24T22:54:25.196Z,3.68
2023-02-24T22:56:30.117Z,3.88
2023-02-24T22:58:33.292Z,3.84
2023-02-24T23:00:35.920Z,3.99
2023-02-24T23:02:39.183Z,3.84
2023-02-24T23:04:41.888Z,3.86
2023-02-24T23:06:47.185Z,4.07
2023-02-24T23:08:51.261Z,4.11
2023-02-24T23:10:54.643Z,4.10
2023-02-24T23:12:58.727Z,3.93
2023-02-24T23:15:01.404Z,3.93
2023-02-24T23:17:03.987Z,4.03
2023-02-24T23:19:08.626Z,4.09
2023-02-24T23:21:11.741Z,4.13
2023-02-24T23:23:14.418Z,4.10
2023-02-24T23:25:17.212Z,4.14
2023-02-24T23:27:21.281Z,3.90
2023-02-24T23:29:26.615Z,3.96
2023-02-24T23:31:29.817Z,4.04
2023-02-24T23:33:32.574Z,4.11
2023-02-24T23:35:35.343Z,4.09
2023-02-24T23:37:38.265Z,4.06
2023-02-24T23:39:40.941Z,3.99
2023-02-24T23:41:43.638Z,3.99
2023-02-24T23:43:46.342Z,3.90
2023-02-24T23:45:50.348Z,4.00
2023-02-24T23:47:53.443Z,4.14
2023-02-24T23:49:56.814Z,4.09
2023-02-24T23:51:59.592Z,4.17
2023-02-24T23:54:02.336Z,4.19
2023-02-24T23:56:09.394Z,4.08
2023-02-24T23:58:12.089Z,4.00
